White Water, California
Current Conditions -  °F | °C
As of 1:53 AM on Saturday 25 Oct 2014 (Local Time) from KPSP Reporting Station
Clear Clear  
Wind Chill: 72°   Ceiling: Unl
Heat Index: 72°   Visibility: 10mi
Dew Point: 49°   Wind: 5mph
Humidity: 44%   Direction: 170°S
Pressure: 29.96"   Gusts: NA
Location:  33.9276°N, 116.6932°W
Report Text: KPSP 250853Z 17004KT 10SM CLR 22/09 A2996 RMK AO2 SLP142 T02220094 58001
Loading
Personal Weather Stations






























Interactive Weather Map
Tropical Storm Tracking
New forecast layout! Learn more

10-Day Weather Forecast

Advertisements
Track Severe Weather on mobile